createdAt,value
2023-05-15T00:00:06.209Z,54
2023-05-15T00:01:49.636Z,54
2023-05-15T00:03:33.041Z,54
2023-05-15T00:05:16.560Z,54
2023-05-15T00:06:59.974Z,54
2023-05-15T00:10:26.282Z,54
2023-05-15T00:12:09.673Z,54
2023-05-15T00:13:53.083Z,54
2023-05-15T00:15:36.658Z,54
2023-05-15T00:17:19.865Z,54
2023-05-15T00:19:03.246Z,54
2023-05-15T00:20:46.654Z,54
2023-05-15T00:22:30.152Z,54
2023-05-15T00:25:56.700Z,54
2023-05-15T00:27:40.003Z,54
2023-05-15T00:29:23.306Z,54
2023-05-15T00:31:06.732Z,54
2023-05-15T00:32:50.110Z,54
2023-05-15T00:34:33.510Z,54
2023-05-15T00:36:17.019Z,54
2023-05-15T00:41:26.213Z,54
2023-05-15T00:43:09.584Z,54
2023-05-15T00:44:52.971Z,53.9
2023-05-15T00:46:36.448Z,53.9
2023-05-15T00:48:19.731Z,53.9
2023-05-15T00:50:03.223Z,53.9
2023-05-15T00:51:46.512Z,53.9
2023-05-15T00:53:29.920Z,53.9
2023-05-15T00:56:56.578Z,53.9
2023-05-15T00:58:39.787Z,53.9
2023-05-15T01:00:23.173Z,53.9
2023-05-15T01:02:06.580Z,53.9
2023-05-15T01:03:50.015Z,53.9
2023-05-15T01:05:33.512Z,53.9
2023-05-15T01:07:16.761Z,53.9
2023-05-15T01:09:00.182Z,53.9
2023-05-15T01:12:26.632Z,53.9
2023-05-15T01:14:10.044Z,53.9
2023-05-15T01:15:53.519Z,53.9
2023-05-15T01:17:36.838Z,53.9
2023-05-15T01:19:20.242Z,53.9
2023-05-15T01:21:03.681Z,53.9
2023-05-15T01:22:47.020Z,53.9
2023-05-15T01:24:30.403Z,53.9
2023-05-15T01:29:39.660Z,53.9
2023-05-15T01:31:23.171Z,53.9
2023-05-15T01:33:06.437Z,53.9
2023-05-15T01:34:49.848Z,53.9
2023-05-15T01:36:33.235Z,53.9
2023-05-15T01:38:16.620Z,53.9
2023-05-15T01:40:00.067Z,53.9
2023-05-15T01:41:43.418Z,53.9
2023-05-15T01:45:09.884Z,53.9
2023-05-15T01:46:53.286Z,53.8
2023-05-15T01:48:36.786Z,53.9
2023-05-15T01:50:20.086Z,53.9
2023-05-15T01:52:03.467Z,53.9
2023-05-15T01:53:46.883Z,53.8
2023-05-15T01:55:30.356Z,53.8
2023-05-15T01:57:13.827Z,53.8
2023-05-15T01:58:57.393Z,53.8
2023-05-15T02:00:40.800Z,53.8
2023-05-15T02:02:24.276Z,53.8
2023-05-15T02:04:07.575Z,53.8
2023-05-15T02:05:51.088Z,53.8
2023-05-15T02:07:34.345Z,53.8
2023-05-15T02:09:17.756Z,53.8
2023-05-15T02:11:01.135Z,53.8
2023-05-15T02:14:27.635Z,53.8
2023-05-15T02:16:11.040Z,53.8
2023-05-15T02:17:54.427Z,53.8
2023-05-15T02:19:37.882Z,53.8
2023-05-15T02:21:21.242Z,53.8
2023-05-15T02:23:04.591Z,53.8
2023-05-15T02:24:47.998Z,53.8
2023-05-15T02:28:14.474Z,53.8
2023-05-15T02:29:57.880Z,53.8
2023-05-15T02:31:41.380Z,53.8
2023-05-15T02:33:24.721Z,53.8
2023-05-15T02:35:08.107Z,53.8
2023-05-15T02:36:51.470Z,53.8
2023-05-15T02:38:34.873Z,53.8
2023-05-15T02:40:18.247Z,53.8
2023-05-15T02:42:02.010Z,53.8
2023-05-15T02:43:45.326Z,53.8
2023-05-15T02:45:28.761Z,53.8
2023-05-15T02:47:12.197Z,53.8
2023-05-15T02:48:55.535Z,53.8
2023-05-15T02:50:38.991Z,53.8
2023-05-15T02:52:22.331Z,53.8
2023-05-15T02:54:05.725Z,53.8
2023-05-15T02:57:32.178Z,53.8
2023-05-15T02:59:15.574Z,53.8
2023-05-15T03:00:59.055Z,53.8
2023-05-15T03:02:42.376Z,53.8
2023-05-15T03:04:25.770Z,53.8
2023-05-15T03:06:09.296Z,53.8
2023-05-15T03:07:52.599Z,53.8
2023-05-15T03:09:35.974Z,53.8
2023-05-15T03:13:02.451Z,53.8
2023-05-15T03:14:45.850Z,53.8
2023-05-15T03:16:29.222Z,53.7
2023-05-15T03:18:12.617Z,53.7
2023-05-15T03:19:56.019Z,53.7
2023-05-15T03:21:39.414Z,53.7
2023-05-15T03:23:22.809Z,53.7
2023-05-15T03:28:32.118Z,53.7
2023-05-15T03:30:15.448Z,53.7
2023-05-15T03:31:58.929Z,53.7
2023-05-15T03:33:42.302Z,53.7
2023-05-15T03:35:25.808Z,53.7
2023-05-15T03:37:09.059Z,53.7
2023-05-15T03:38:52.458Z,53.7
2023-05-15T03:40:35.833Z,53.7
2023-05-15T03:44:02.310Z,53.7
2023-05-15T03:45:45.821Z,53.7
2023-05-15T03:47:29.159Z,53.7
2023-05-15T03:49:12.495Z,53.7
2023-05-15T03:50:55.982Z,53.7
2023-05-15T03:52:39.396Z,53.7
2023-05-15T03:54:22.697Z,53.7
2023-05-15T03:56:06.246Z,53.7
2023-05-15T03:59:32.726Z,53.7
2023-05-15T04:01:16.130Z,53.7
2023-05-15T04:02:59.529Z,53.7
2023-05-15T04:04:42.899Z,53.7
2023-05-15T04:06:26.272Z,53.7
2023-05-15T04:08:09.689Z,53.7
2023-05-15T04:09:52.996Z,53.7
2023-05-15T04:11:36.557Z,53.7
2023-05-15T04:15:02.806Z,53.7
2023-05-15T04:16:46.203Z,53.7
2023-05-15T04:18:29.856Z,53.7
2023-05-15T04:20:13.052Z,53.7
2023-05-15T04:21:56.583Z,53.7
2023-05-15T04:23:39.896Z,53.7
2023-05-15T04:25:23.173Z,53.7
2023-05-15T04:27:06.653Z,53.7
2023-05-15T04:30:33.172Z,53.7
2023-05-15T04:32:16.581Z,53.6
2023-05-15T04:33:59.849Z,53.6
2023-05-15T04:35:43.383Z,53.7
2023-05-15T04:37:26.761Z,53.7
2023-05-15T04:39:10.105Z,53.7
2023-05-15T04:40:53.422Z,53.7
2023-05-15T04:46:02.861Z,53.7
2023-05-15T04:47:46.148Z,53.7
2023-05-15T04:49:29.480Z,53.6
2023-05-15T04:51:13.102Z,53.6
2023-05-15T04:52:56.390Z,53.6
2023-05-15T04:54:39.658Z,53.6
2023-05-15T04:56:23.272Z,53.6
2023-05-15T04:58:06.536Z,53.6
2023-05-15T04:59:50.286Z,53.6
2023-05-15T05:01:33.657Z,53.6
2023-05-15T05:03:17.085Z,53.6
2023-05-15T05:05:00.329Z,53.6
2023-05-15T05:06:43.740Z,53.6
2023-05-15T05:08:27.229Z,53.6
2023-05-15T05:10:10.624Z,53.6
2023-05-15T05:11:53.945Z,53.6
2023-05-15T05:13:37.754Z,53.6
2023-05-15T05:15:21.148Z,53.6
2023-05-15T05:17:04.475Z,53.6
2023-05-15T05:18:47.829Z,53.6
2023-05-15T05:20:31.351Z,53.6
2023-05-15T05:22:14.632Z,53.6
2023-05-15T05:23:57.999Z,53.6
2023-05-15T05:25:41.512Z,53.6
2023-05-15T05:29:07.884Z,53.6
2023-05-15T05:30:51.422Z,53.6
2023-05-15T05:32:34.761Z,53.6
2023-05-15T05:34:18.177Z,53.6
2023-05-15T05:36:01.527Z,53.6
2023-05-15T05:37:44.984Z,53.6
2023-05-15T05:39:28.394Z,53.6
2023-05-15T05:41:11.736Z,53.6
2023-05-15T05:44:38.217Z,53.6
2023-05-15T05:46:21.583Z,53.6
2023-05-15T05:48:05.062Z,53.6
2023-05-15T05:49:48.411Z,53.6
2023-05-15T05:51:31.879Z,53.6
2023-05-15T05:53:15.224Z,53.6
2023-05-15T05:54:58.689Z,53.6
2023-05-15T05:56:41.994Z,53.6
2023-05-15T05:58:25.651Z,53.6
2023-05-15T06:00:09.076Z,53.6
2023-05-15T06:01:52.519Z,53.6
2023-05-15T06:03:35.805Z,53.6
2023-05-15T06:05:19.238Z,53.6
2023-05-15T06:07:02.676Z,53.6
2023-05-15T06:08:46.121Z,53.6
2023-05-15T06:10:29.455Z,53.6
2023-05-15T06:15:38.717Z,53.6
2023-05-15T06:17:22.004Z,53.6
2023-05-15T06:19:05.505Z,53.6
2023-05-15T06:20:48.800Z,53.6
2023-05-15T06:22:32.345Z,53.6
2023-05-15T06:24:15.602Z,53.6
2023-05-15T06:25:59.056Z,53.6
2023-05-15T06:27:42.454Z,53.6
2023-05-15T06:31:08.850Z,53.6
2023-05-15T06:32:52.386Z,53.6
2023-05-15T06:34:35.873Z,53.6
2023-05-15T06:36:19.256Z,53.6
2023-05-15T06:38:02.575Z,53.6
2023-05-15T06:39:45.870Z,53.5
2023-05-15T06:41:29.415Z,53.6
2023-05-15T06:43:12.799Z,53.5
2023-05-15T06:46:39.229Z,53.5
2023-05-15T06:48:22.770Z,53.5
2023-05-15T06:50:06.018Z,53.5
2023-05-15T06:51:49.420Z,53.5
2023-05-15T06:53:32.853Z,53.5
2023-05-15T06:55:16.243Z,53.5
2023-05-15T06:56:59.634Z,53.5
2023-05-15T06:58:43.113Z,53.5
2023-05-15T07:02:09.442Z,53.5
2023-05-15T07:03:52.885Z,53.5
2023-05-15T07:05:36.196Z,53.5
2023-05-15T07:07:19.720Z,53.5
2023-05-15T07:09:03.096Z,53.5
2023-05-15T07:10:46.445Z,53.5
2023-05-15T07:12:29.819Z,53.5
2023-05-15T07:14:13.178Z,53.5
2023-05-15T07:17:39.774Z,53.5
2023-05-15T07:19:23.020Z,53.5
2023-05-15T07:21:06.554Z,53.5
2023-05-15T07:22:49.863Z,53.5
2023-05-15T07:24:33.232Z,53.5
2023-05-15T07:26:16.695Z,53.5
2023-05-15T07:28:00.057Z,53.5
2023-05-15T07:29:43.609Z,53.5
2023-05-15T07:34:52.640Z,53.4
2023-05-15T07:36:36.170Z,53.4
2023-05-15T07:38:19.425Z,53.4
2023-05-15T07:40:02.804Z,53.4
2023-05-15T07:41:46.197Z,53.4
2023-05-15T07:43:29.705Z,53.4
2023-05-15T07:45:12.983Z,53.4
2023-05-15T07:46:56.539Z,53.4
2023-05-15T07:50:22.864Z,53.4
2023-05-15T07:52:06.384Z,53.4
2023-05-15T07:53:49.867Z,53.4
2023-05-15T07:55:33.052Z,53.4
2023-05-15T07:57:16.515Z,53.4
2023-05-15T07:58:59.978Z,53.4
2023-05-15T08:00:43.364Z,53.3
2023-05-15T08:02:26.641Z,53.3
2023-05-15T08:05:53.207Z,53.3
2023-05-15T08:07:36.538Z,53.3
2023-05-15T08:09:19.898Z,53.3
2023-05-15T08:11:03.313Z,53.3
2023-05-15T08:12:46.893Z,53.3
2023-05-15T08:14:30.190Z,53.3
2023-05-15T08:16:13.490Z,53.3
2023-05-15T08:17:56.995Z,53.3
2023-05-15T08:23:06.147Z,53.3
2023-05-15T08:24:49.551Z,53.3
2023-05-15T08:26:32.973Z,53.3
2023-05-15T08:28:16.313Z,53.3
2023-05-15T08:29:59.778Z,53.3
2023-05-15T08:31:43.124Z,53.3
2023-05-15T08:33:26.704Z,53.3
2023-05-15T08:35:09.913Z,53.3
2023-05-15T08:40:19.131Z,53.2
2023-05-15T08:42:02.550Z,53.2
2023-05-15T08:43:45.949Z,53.2
2023-05-15T08:47:12.832Z,53.2
2023-05-15T08:48:56.174Z,53.2
2023-05-15T08:50:39.573Z,53.2
2023-05-15T08:52:23.011Z,53.2
2023-05-15T08:55:49.478Z,53.2
2023-05-15T08:57:32.946Z,53.2
2023-05-15T08:59:16.199Z,53.2
2023-05-15T09:00:59.648Z,53.2
2023-05-15T09:02:43.191Z,53.2
2023-05-15T09:04:26.458Z,53.2
2023-05-15T09:06:09.772Z,53.2
2023-05-15T09:07:53.286Z,53.2
2023-05-15T09:11:19.850Z,53.2
2023-05-15T09:13:03.127Z,53.2
2023-05-15T09:14:46.597Z,53.2
2023-05-15T09:16:29.986Z,53.2
2023-05-15T09:18:13.396Z,53.2
2023-05-15T09:19:56.669Z,53.2
2023-05-15T09:21:40.112Z,53.2
2023-05-15T09:26:49.290Z,53.2
2023-05-15T09:28:32.701Z,53.2
2023-05-15T09:30:16.139Z,53.2
2023-05-15T09:31:59.603Z,53.1
2023-05-15T09:33:42.944Z,53.1
2023-05-15T09:35:26.372Z,53.1
2023-05-15T09:37:09.732Z,53.2
2023-05-15T09:38:53.193Z,53.2
2023-05-15T09:40:36.731Z,53.2
2023-05-15T09:42:20.314Z,53.2
2023-05-15T09:44:03.632Z,53.2
2023-05-15T09:45:47.079Z,53.2
2023-05-15T09:47:30.508Z,53.2
2023-05-15T09:49:13.704Z,53.2
2023-05-15T09:50:57.245Z,53.2
2023-05-15T09:52:40.609Z,53.2
2023-05-15T09:54:24.267Z,53.2
2023-05-15T09:56:07.693Z,53.2
2023-05-15T09:57:51.134Z,53.2
2023-05-15T09:59:34.522Z,53.2
2023-05-15T10:01:17.864Z,53.2
2023-05-15T10:03:01.180Z,53.2
2023-05-15T10:04:44.737Z,53.2
2023-05-15T10:06:28.079Z,53.2
2023-05-15T10:08:11.690Z,53.2
2023-05-15T10:09:55.094Z,53.2
2023-05-15T10:11:38.510Z,53.2
2023-05-15T10:13:21.882Z,53.2
2023-05-15T10:15:05.329Z,53.2
2023-05-15T10:16:48.681Z,53.2
2023-05-15T10:18:32.194Z,53.2
2023-05-15T10:20:15.474Z,53.2
2023-05-15T10:23:41.944Z,53.2
2023-05-15T10:25:25.318Z,53.2
2023-05-15T10:27:08.844Z,53.2
2023-05-15T10:28:52.200Z,53.2
2023-05-15T10:30:35.521Z,53.2
2023-05-15T10:32:18.945Z,53.2
2023-05-15T10:34:02.323Z,53.2
2023-05-15T10:39:11.641Z,53.2
2023-05-15T10:40:54.933Z,53.2
2023-05-15T10:42:38.466Z,53.2
2023-05-15T10:44:21.786Z,53.2
2023-05-15T10:46:05.285Z,53.2
2023-05-15T10:47:48.533Z,53.2
2023-05-15T10:49:31.985Z,53.2
2023-05-15T10:51:15.335Z,53.2
2023-05-15T10:56:24.557Z,53.3
2023-05-15T10:58:07.988Z,53.3
2023-05-15T10:59:51.459Z,53.3
2023-05-15T11:01:34.859Z,53.3
2023-05-15T11:03:18.243Z,53.3
2023-05-15T11:05:01.626Z,53.3
2023-05-15T11:06:45.199Z,53.3
2023-05-15T11:08:28.488Z,53.3
2023-05-15T11:11:54.856Z,53.3
2023-05-15T11:13:38.358Z,53.3
2023-05-15T11:15:21.753Z,53.3
2023-05-15T11:17:05.223Z,53.3
2023-05-15T11:18:48.515Z,53.3
2023-05-15T11:20:31.935Z,53.3
2023-05-15T11:22:15.319Z,53.3
2023-05-15T11:23:58.723Z,53.3
2023-05-15T11:27:25.108Z,53.3
2023-05-15T11:29:08.657Z,53.3
2023-05-15T11:30:52.066Z,53.3
2023-05-15T11:32:35.380Z,53.3
2023-05-15T11:34:18.774Z,53.3
2023-05-15T11:36:02.158Z,53.3
2023-05-15T11:37:45.422Z,53.3
2023-05-15T11:39:28.974Z,53.3
2023-05-15T11:42:55.366Z,53.3
2023-05-15T11:44:38.833Z,53.3
2023-05-15T11:46:22.273Z,53.3
2023-05-15T11:48:05.581Z,53.3
2023-05-15T11:49:48.917Z,53.3
2023-05-15T11:51:32.427Z,53.3
2023-05-15T11:53:15.764Z,53.3
2023-05-15T11:54:59.114Z,53.3
2023-05-15T12:00:08.453Z,53.3
2023-05-15T12:01:51.708Z,53.3
2023-05-15T12:03:35.122Z,53.3
2023-05-15T12:05:18.515Z,53.3
2023-05-15T12:07:01.929Z,53.3
2023-05-15T12:08:45.318Z,53.3
2023-05-15T12:10:28.739Z,53.3
2023-05-15T12:12:12.095Z,53.3
2023-05-15T12:15:38.623Z,53.4
2023-05-15T12:17:21.985Z,53.4
2023-05-15T12:19:05.370Z,53.4
2023-05-15T12:20:48.785Z,53.4
2023-05-15T12:22:32.221Z,53.4
2023-05-15T12:24:15.547Z,53.3
2023-05-15T12:25:58.939Z,53.3
2023-05-15T12:27:42.345Z,53.3
2023-05-15T12:29:26.064Z,53.3
2023-05-15T12:31:09.477Z,53.3
2023-05-15T12:32:52.948Z,53.3
2023-05-15T12:34:36.278Z,53.3
2023-05-15T12:36:19.646Z,53.3
2023-05-15T12:38:03.030Z,53.3
2023-05-15T12:39:46.429Z,53.3
2023-05-15T12:41:29.849Z,53.3
2023-05-15T12:44:56.319Z,53.3
2023-05-15T12:46:39.762Z,53.3
2023-05-15T12:48:23.123Z,53.3
2023-05-15T12:50:06.505Z,53.3
2023-05-15T12:51:49.911Z,53.3
2023-05-15T12:53:33.390Z,53.3
2023-05-15T12:55:16.674Z,53.2
2023-05-15T12:57:00.080Z,53.2
2023-05-15T12:58:43.785Z,53.3
2023-05-15T13:00:27.171Z,53.3
2023-05-15T13:02:10.585Z,53.3
2023-05-15T13:03:53.976Z,53.3
2023-05-15T13:05:37.380Z,53.3
2023-05-15T13:07:20.904Z,53.3
2023-05-15T13:09:04.305Z,53.3
2023-05-15T13:10:47.624Z,53.3
2023-05-15T13:15:56.913Z,53.2
2023-05-15T13:17:40.199Z,53.2
2023-05-15T13:19:23.776Z,53.3
2023-05-15T13:21:07.076Z,53.3
2023-05-15T13:22:50.490Z,53.3
2023-05-15T13:24:33.818Z,53.3
2023-05-15T13:26:17.163Z,53.2
2023-05-15T13:28:00.654Z,53.2
2023-05-15T13:29:44.272Z,53.2
2023-05-15T13:31:27.741Z,53.2
2023-05-15T13:33:11.181Z,53.2
2023-05-15T13:34:54.453Z,53.2
2023-05-15T13:36:38.031Z,53.2
2023-05-15T13:38:21.346Z,53.2
2023-05-15T13:40:04.640Z,53.2
2023-05-15T13:41:48.057Z,53.2
2023-05-15T13:45:14.647Z,53.2
2023-05-15T13:46:58.061Z,53.2
2023-05-15T13:48:41.459Z,53.2
2023-05-15T13:50:24.743Z,53.2
2023-05-15T13:52:08.180Z,53.2
2023-05-15T13:53:51.588Z,53.2
2023-05-15T13:55:35.049Z,53.2
2023-05-15T13:57:18.276Z,53.2
2023-05-15T14:00:44.771Z,53.2
2023-05-15T14:02:28.164Z,53.2
2023-05-15T14:04:11.555Z,53.3
2023-05-15T14:05:55.111Z,53.3
2023-05-15T14:07:38.338Z,53.3
2023-05-15T14:09:21.745Z,53.2
2023-05-15T14:11:05.137Z,53.3
2023-05-15T14:12:48.544Z,53.3
2023-05-15T14:14:32.257Z,53.3
2023-05-15T14:16:15.641Z,53.2
2023-05-15T14:17:59.047Z,53.2
2023-05-15T14:19:42.430Z,53.2
2023-05-15T14:21:25.814Z,53.2
2023-05-15T14:23:09.225Z,53.2
2023-05-15T14:24:52.598Z,53.2
2023-05-15T14:26:36.053Z,53.2
2023-05-15T14:28:19.748Z,53.1
2023-05-15T14:30:03.117Z,53.2
2023-05-15T14:31:46.514Z,53.2
2023-05-15T14:33:29.904Z,53.2
2023-05-15T14:35:13.302Z,53.2
2023-05-15T14:36:56.699Z,53.3
2023-05-15T14:38:40.094Z,53.3
2023-05-15T14:40:23.496Z,53.3
2023-05-15T14:43:49.960Z,53.3
2023-05-15T14:45:33.365Z,53.3
2023-05-15T14:47:16.765Z,53.3
2023-05-15T14:49:00.149Z,53.3
2023-05-15T14:50:43.532Z,53.3
2023-05-15T14:52:26.944Z,53.3
2023-05-15T14:54:10.321Z,53.3
2023-05-15T14:55:53.726Z,53.3
2023-05-15T14:57:37.440Z,53.3
2023-05-15T14:59:20.837Z,53.3
2023-05-15T15:01:04.239Z,53.3
2023-05-15T15:02:47.611Z,53.3
2023-05-15T15:04:31.016Z,53.3
2023-05-15T15:06:14.413Z,53.3
2023-05-15T15:07:57.816Z,53.4
2023-05-15T15:09:41.192Z,53.3
2023-05-15T15:13:07.683Z,53.3
2023-05-15T15:14:51.099Z,53.4
2023-05-15T15:16:34.503Z,53.4
2023-05-15T15:18:17.858Z,53.4
2023-05-15T15:20:01.269Z,53.4
2023-05-15T15:21:44.679Z,53.4
2023-05-15T15:23:28.055Z,53.4
2023-05-15T15:25:11.447Z,53.4
2023-05-15T15:26:55.143Z,53.4
2023-05-15T15:28:38.555Z,53.3
2023-05-15T15:30:21.925Z,53.4
2023-05-15T15:32:05.340Z,53.5
2023-05-15T15:33:48.731Z,53.5
2023-05-15T15:35:32.145Z,53.5
2023-05-15T15:37:15.520Z,53.5
2023-05-15T15:38:59.090Z,53.5
2023-05-15T15:40:42.721Z,53.5
2023-05-15T15:42:26.106Z,53.5
2023-05-15T15:44:09.549Z,53.5
2023-05-15T15:45:52.921Z,53.5
2023-05-15T15:47:36.222Z,53.6
2023-05-15T15:49:19.606Z,53.6
2023-05-15T15:51:02.996Z,53.5
2023-05-15T15:52:46.444Z,53.5
2023-05-15T15:56:12.945Z,53.5
2023-05-15T15:57:56.289Z,53.5
2023-05-15T15:59:39.716Z,53.5
2023-05-15T16:01:23.071Z,53.5
2023-05-15T16:03:06.487Z,53.5
2023-05-15T16:04:49.895Z,53.5
2023-05-15T16:06:33.254Z,53.5
2023-05-15T16:08:16.634Z,53.5
2023-05-15T16:10:00.349Z,53.5
2023-05-15T16:11:43.791Z,53.5
2023-05-15T16:13:27.145Z,53.5
2023-05-15T16:15:10.535Z,53.5
2023-05-15T16:16:53.997Z,53.5
2023-05-15T16:18:37.399Z,53.5
2023-05-15T16:20:20.740Z,53.5
2023-05-15T16:22:04.164Z,53.4
2023-05-15T16:25:30.811Z,53.5
2023-05-15T16:27:14.005Z,53.5
2023-05-15T16:28:57.420Z,53.4
2023-05-15T16:30:40.784Z,53.4
2023-05-15T16:32:24.174Z,53.4
2023-05-15T16:34:07.582Z,53.4
2023-05-15T16:35:50.994Z,53.4
2023-05-15T16:37:34.361Z,53.4
2023-05-15T16:39:18.072Z,53.4
2023-05-15T16:41:01.524Z,53.4
2023-05-15T16:42:44.870Z,53.4
2023-05-15T16:44:28.282Z,53.4
2023-05-15T16:46:11.671Z,53.4
2023-05-15T16:47:55.048Z,53.4
2023-05-15T16:49:38.440Z,53.4
2023-05-15T16:51:21.847Z,53.4
2023-05-15T16:54:48.338Z,53.5
2023-05-15T16:56:31.716Z,53.4
2023-05-15T16:58:15.103Z,53.4
2023-05-15T16:59:58.515Z,53.5
2023-05-15T17:01:41.900Z,53.4
2023-05-15T17:03:25.285Z,53.4
2023-05-15T17:05:08.706Z,53.4
2023-05-15T17:06:52.092Z,53.5
2023-05-15T17:10:18.562Z,53.5
2023-05-15T17:12:01.970Z,53.5
2023-05-15T17:13:45.348Z,53.5
2023-05-15T17:15:28.751Z,53.5
2023-05-15T17:17:12.206Z,53.5
2023-05-15T17:18:55.545Z,53.5
2023-05-15T17:20:38.941Z,53.5
2023-05-15T17:22:22.333Z,53.5
2023-05-15T17:24:05.740Z,53.5
2023-05-15T17:25:49.430Z,53.5
2023-05-15T17:27:32.866Z,53.5
2023-05-15T17:29:16.226Z,53.5
2023-05-15T17:30:59.618Z,53.5
2023-05-15T17:32:43.010Z,53.5
2023-05-15T17:34:26.408Z,53.5
2023-05-15T17:36:09.811Z,53.5
2023-05-15T17:37:53.248Z,53.5
2023-05-15T17:43:02.487Z,53.5
2023-05-15T17:44:45.838Z,53.6
2023-05-15T17:46:29.255Z,53.5
2023-05-15T17:48:12.654Z,53.5
2023-05-15T17:49:56.031Z,53.5
2023-05-15T17:51:39.424Z,53.6
2023-05-15T17:53:22.820Z,53.6
2023-05-15T17:55:06.233Z,53.5
2023-05-15T17:56:49.941Z,53.6
2023-05-15T17:58:33.366Z,53.6
2023-05-15T18:00:16.737Z,53.6
2023-05-15T18:02:00.116Z,53.6
2023-05-15T18:03:43.526Z,53.6
2023-05-15T18:07:10.334Z,53.6
2023-05-15T18:08:53.695Z,53.6
2023-05-15T18:10:37.410Z,53.6
2023-05-15T18:12:20.812Z,53.6
2023-05-15T18:14:04.224Z,53.6
2023-05-15T18:15:47.618Z,53.6
2023-05-15T18:17:30.991Z,53.6
2023-05-15T18:19:14.411Z,53.6
2023-05-15T18:20:57.788Z,53.6
2023-05-15T18:22:41.173Z,53.6
2023-05-15T18:26:07.751Z,53.6
2023-05-15T18:27:51.046Z,53.6
2023-05-15T18:29:34.447Z,53.6
2023-05-15T18:31:17.835Z,53.6
2023-05-15T18:33:01.244Z,53.6
2023-05-15T18:34:44.631Z,53.6
2023-05-15T18:36:28.067Z,53.6
2023-05-15T18:38:11.438Z,53.6
2023-05-15T18:39:55.156Z,53.6
2023-05-15T18:41:38.538Z,53.6
2023-05-15T18:43:21.939Z,53.6
2023-05-15T18:45:05.322Z,53.6
2023-05-15T18:46:48.718Z,53.6
2023-05-15T18:48:32.138Z,53.6
2023-05-15T18:50:15.533Z,53.6
2023-05-15T18:51:58.918Z,53.6
2023-05-15T18:55:25.391Z,53.6
2023-05-15T18:57:08.782Z,53.6
2023-05-15T18:58:52.185Z,53.6
2023-05-15T19:00:35.575Z,53.6
2023-05-15T19:02:18.980Z,53.6
2023-05-15T19:04:02.451Z,53.6
2023-05-15T19:05:45.777Z,53.6
2023-05-15T19:07:29.156Z,53.6
2023-05-15T19:09:12.860Z,53.6
2023-05-15T19:10:56.372Z,53.6
2023-05-15T19:12:39.656Z,53.6
2023-05-15T19:14:23.113Z,53.6
2023-05-15T19:16:06.450Z,53.6
2023-05-15T19:17:49.843Z,53.6
2023-05-15T19:19:33.228Z,53.6
2023-05-15T19:21:16.645Z,53.6
2023-05-15T19:23:00.333Z,53.6
2023-05-15T19:24:43.751Z,53.6
2023-05-15T19:26:27.129Z,53.6
2023-05-15T19:28:10.633Z,53.6
2023-05-15T19:29:53.936Z,53.6
2023-05-15T19:31:37.323Z,53.6
2023-05-15T19:33:20.723Z,53.6
2023-05-15T19:35:04.126Z,53.6
2023-05-15T19:38:30.589Z,53.6
2023-05-15T19:40:13.992Z,53.6
2023-05-15T19:41:57.375Z,53.6
2023-05-15T19:43:40.775Z,53.6
2023-05-15T19:45:24.158Z,53.6
2023-05-15T19:47:07.636Z,53.6
2023-05-15T19:48:50.984Z,53.6
2023-05-15T19:52:17.445Z,53.6
2023-05-15T19:54:00.821Z,53.6
2023-05-15T19:55:44.229Z,53.6
2023-05-15T19:57:27.615Z,53.6
2023-05-15T19:59:11.058Z,53.6
2023-05-15T20:00:54.418Z,53.6
2023-05-15T20:02:37.816Z,53.5
2023-05-15T20:06:04.316Z,53.6
2023-05-15T20:07:47.686Z,53.6
2023-05-15T20:09:31.055Z,53.6
2023-05-15T20:11:14.480Z,53.5
2023-05-15T20:12:57.863Z,53.5
2023-05-15T20:14:41.265Z,53.5
2023-05-15T20:16:24.672Z,53.5
2023-05-15T20:19:51.131Z,53.5
2023-05-15T20:21:34.527Z,53.5
2023-05-15T20:23:17.936Z,53.5
2023-05-15T20:25:01.334Z,53.5
2023-05-15T20:26:44.752Z,53.5
2023-05-15T20:28:28.178Z,53.5
2023-05-15T20:30:11.544Z,53.5
2023-05-15T20:31:54.903Z,53.5
2023-05-15T20:33:38.631Z,53.5
2023-05-15T20:35:21.996Z,53.6
2023-05-15T20:37:05.419Z,53.5
2023-05-15T20:38:48.801Z,53.5
2023-05-15T20:40:32.205Z,53.5
2023-05-15T20:42:15.627Z,53.5
2023-05-15T20:43:58.997Z,53.5
2023-05-15T20:45:42.384Z,53.5
2023-05-15T20:47:26.070Z,53.5
2023-05-15T20:49:09.468Z,53.5
2023-05-15T20:50:52.875Z,53.5
2023-05-15T20:52:36.267Z,53.5
2023-05-15T20:54:19.672Z,53.5
2023-05-15T20:56:03.071Z,53.5
2023-05-15T20:57:46.461Z,53.5
2023-05-15T20:59:29.857Z,53.5
2023-05-15T21:01:13.623Z,53.5
2023-05-15T21:02:56.961Z,53.5
2023-05-15T21:04:40.350Z,53.5
2023-05-15T21:06:23.735Z,53.5
2023-05-15T21:08:07.164Z,53.5
2023-05-15T21:09:50.543Z,53.5
2023-05-15T21:11:33.934Z,53.5
2023-05-15T21:13:17.327Z,53.5
2023-05-15T21:15:01.046Z,53.5
2023-05-15T21:16:44.421Z,53.5
2023-05-15T21:18:27.844Z,53.5
2023-05-15T21:20:11.215Z,53.5
2023-05-15T21:21:54.622Z,53.5
2023-05-15T21:23:38.019Z,53.5
2023-05-15T21:25:21.426Z,53.5
2023-05-15T21:27:04.823Z,53.5
2023-05-15T21:30:31.281Z,53.5
2023-05-15T21:32:14.674Z,53.5
2023-05-15T21:33:58.074Z,53.5
2023-05-15T21:35:41.465Z,53.5
2023-05-15T21:37:24.856Z,53.5
2023-05-15T21:39:08.256Z,53.4
2023-05-15T21:40:51.652Z,53.4
2023-05-15T21:46:00.907Z,53.6
2023-05-15T21:47:44.301Z,53.5
2023-05-15T21:49:27.700Z,53.5
2023-05-15T21:51:11.093Z,53.5
2023-05-15T21:52:54.478Z,53.6
2023-05-15T21:54:37.902Z,53.6
2023-05-15T21:56:21.285Z,53.6
2023-05-15T22:01:30.538Z,53.6
2023-05-15T22:03:13.927Z,53.6
2023-05-15T22:04:57.331Z,53.6
2023-05-15T22:06:40.714Z,53.6
2023-05-15T22:08:24.097Z,53.5
2023-05-15T22:10:07.499Z,53.5
2023-05-15T22:11:50.885Z,53.6
2023-05-15T22:17:00.154Z,53.5
2023-05-15T22:18:43.525Z,53.5
2023-05-15T22:22:10.322Z,53.5
2023-05-15T22:23:53.724Z,53.5
2023-05-15T22:25:37.117Z,53.5
2023-05-15T22:27:20.515Z,53.5
2023-05-15T22:30:46.984Z,53.5
2023-05-15T22:32:30.491Z,53.5
2023-05-15T22:34:13.956Z,53.5
2023-05-15T22:35:57.397Z,53.5
2023-05-15T22:37:40.790Z,53.5
2023-05-15T22:39:24.184Z,53.5
2023-05-15T22:41:07.467Z,53.5
2023-05-15T22:42:50.964Z,53.5
2023-05-15T22:44:34.465Z,53.5
2023-05-15T22:46:18.002Z,53.5
2023-05-15T22:48:01.485Z,53.5
2023-05-15T22:49:44.808Z,53.5
2023-05-15T22:51:28.288Z,53.5
2023-05-15T22:53:11.620Z,53.5
2023-05-15T22:54:54.867Z,53.5
2023-05-15T22:56:38.401Z,53.5
2023-05-15T22:58:21.921Z,53.5
2023-05-15T23:00:05.520Z,53.4
2023-05-15T23:01:48.887Z,53.5
2023-05-15T23:03:32.122Z,53.5
2023-05-15T23:05:15.522Z,53.5
2023-05-15T23:06:59.053Z,53.4
2023-05-15T23:08:42.310Z,53.4
2023-05-15T23:10:25.964Z,53.4
2023-05-15T23:13:52.369Z,53.4
2023-05-15T23:15:35.743Z,53.4
2023-05-15T23:17:19.149Z,53.4
2023-05-15T23:19:02.436Z,53.4
2023-05-15T23:20:45.772Z,53.4
2023-05-15T23:22:29.165Z,53.4
2023-05-15T23:24:12.556Z,53.4
2023-05-15T23:29:21.827Z,53.4
2023-05-15T23:31:05.190Z,53.4
2023-05-15T23:32:48.587Z,53.4
2023-05-15T23:34:31.986Z,53.4
2023-05-15T23:36:15.389Z,53.4
2023-05-15T23:37:58.768Z,53.4
2023-05-15T23:39:42.170Z,53.4
2023-05-15T23:44:51.414Z,53.4
2023-05-15T23:46:34.832Z,53.4
2023-05-15T23:48:18.208Z,53.4
2023-05-15T23:50:01.610Z,53.4
2023-05-15T23:51:45.013Z,53.4
2023-05-15T23:53:28.404Z,53.4
2023-05-15T23:55:11.796Z,53.4
2023-05-15T23:58:38.271Z,53.3
